Portada
METAR-TAF:

METAR-TAF

Aeroports :

Taree, Austràlia

latitud: 31-53-19S, longitud: 152-30-50E, altitud: 12 m

Observació

L'informe es va fer fa 13 minuts, a les 14:00 UTC
Vent 6 kt del Oest/Nord-Oest
Temperatura 16°C
Humitat 94%
Pressió 1020 hPa
Visibilitat 10 km o més
Cel ennuvolat a una alçada de 7700 ft

METAR: YTRE 071400Z AUTO 29006KT 9999 // BKN077 16/15 Q1020

Hora: 00:13 (14:13 UTC)

Pronòstic

L'informe es va fer fa 53 minuts, a les 13:20 UTC
Pronòstic vàlid del 07 a les 14 UTC al 08 a les 02 UTC
Vent 3 kt amb direcció variable
Visibilitat 10 km o més
Cel ennuvolat a una alçada de 3000 ft
xàfecs de pluja
Probabilitat 30%
l' 07 a les 16 UTC al 07 a les 20 UTC
Visibilitat: 0500 m
Cel ennuvolat a una alçada de 200 ft
boira

TAF: YTRE 071320Z 0714/0802 VRB03KT 9999 -SHRA BKN030 PROB30 0716/0720 0500 FG BKN002

Observacions i pronòstics meteorològics de més de 4000 aeroports (METAR i TAF).

Les estacions disponibles són els punts grocs i vermells al mapa.

Posi el ratolí al punt desitjat per veure el nom de l'estació.

Feu clic per veure les observacions i els pronòstics meteorològics.

Per canviar el mapa: feu clic els botons verds amb una creu de color negre per apropar; al botó verd amb un guió per allunyar la imatge; o en les fletxes verdes per a mapes adjacents.


METAR-TAF: